Time;durP1;ratioP1;P1;durP2;ratioP2;P2;SDS_P1;SDS_P2;PMS_P1;PMS_P2;Temp;Humidity;BMP_temperature;BMP_pressure;BME280_temperature;BME280_humidity;BME280_pressure;Samples;Min_cycle;Max_cycle;Signal;HPM_P1;HPM_P2
2021/11/26 00:00:00;;;;;;;20.67;13.40;;;;;;;3.06;76.31;93312.25;5099107;28;20043;-47
2021/11/26 00:02:27;;;;;;;24.45;16.05;;;;;;;3.01;76.89;93316.50;5100126;28;20241;-47
2021/11/26 00:04:53;;;;;;;18.70;13.20;;;;;;;3.02;76.50;93328.88;5099211;28;20087;-46
2021/11/26 00:07:19;;;;;;;17.60;12.70;;;;;;;2.87;76.89;93303.91;5098468;28;20024;-47
2021/11/26 00:09:46;;;;;;;21.98;11.85;;;;;;;3.07;76.33;93324.66;5097904;28;20099;-48
2021/11/26 00:12:12;;;;;;;19.20;11.27;;;;;;;2.78;75.98;93279.66;5098331;28;20020;-47
2021/11/26 00:15:04;;;;;;;16.88;11.32;;;;;;;3.14;76.00;93315.91;5099680;28;20027;-47
2021/11/26 00:17:33;;;;;;;16.33;10.60;;;;;;;3.20;75.49;93313.94;5101068;28;20076;-47
2021/11/26 00:19:59;;;;;;;;;;;;;;;3.08;75.83;93309.75;5098288;28;20048;-47
2021/11/26 00:22:24;;;;;;;15.32;8.85;;;;;;;2.96;75.35;93286.53;5099177;28;19968;-47
2021/11/26 00:24:52;;;;;;;13.13;9.25;;;;;;;3.21;75.02;93311.91;5100364;28;20069;-46
2021/11/26 00:27:18;;;;;;;21.83;13.00;;;;;;;3.20;75.43;93310.44;5100202;28;20032;-46
2021/11/26 00:29:44;;;;;;;15.07;10.00;;;;;;;3.19;75.03;93304.25;5100324;28;20105;-43
2021/11/26 00:32:09;;;;;;;15.30;10.15;;;;;;;3.23;75.35;93301.28;5100459;28;20107;-44
2021/11/26 00:34:35;;;;;;;15.60;11.13;;;;;;;3.23;75.35;93304.72;5097851;28;20020;-45
2021/11/26 00:37:00;;;;;;;14.50;11.00;;;;;;;3.25;75.64;93306.97;5098792;28;20028;-44
2021/11/26 00:39:26;;;;;;;16.05;10.68;;;;;;;3.35;74.81;93294.50;5099718;28;20035;-44
2021/11/26 00:41:51;;;;;;;15.07;11.02;;;;;;;3.26;75.12;93311.91;5100299;28;20409;-44
2021/11/26 00:44:17;;;;;;;15.50;11.05;;;;;;;3.31;74.81;93311.13;5099561;28;20027;-43
2021/11/26 00:46:42;;;;;;;16.40;11.32;;;;;;;3.21;74.83;93303.72;5097595;28;20107;-44
2021/11/26 00:49:08;;;;;;;18.17;10.93;;;;;;;3.23;75.46;93298.53;5099504;28;20427;-44
2021/11/26 00:51:34;;;;;;;14.50;10.05;;;;;;;3.27;75.29;93296.28;5099320;28;20556;-44
2021/11/26 00:54:00;;;;;;;13.25;10.10;;;;;;;3.35;74.61;93292.50;5095876;28;20020;-45
2021/11/26 00:56:25;;;;;;;14.43;10.27;;;;;;;3.26;74.99;93298.25;5096390;27;20023;-45
2021/11/26 00:58:51;;;;;;;17.38;11.48;;;;;;;3.20;75.36;93289.38;5097598;28;20030;-44
2021/11/26 01:01:17;;;;;;;17.45;11.35;;;;;;;3.18;75.95;93288.41;5100623;28;20028;-43
2021/11/26 01:03:42;;;;;;;16.98;11.23;;;;;;;3.23;75.66;93288.34;5100823;28;20027;-44
2021/11/26 01:06:08;;;;;;;17.13;11.50;;;;;;;3.38;75.25;93285.31;5101240;28;20094;-43
2021/11/26 01:08:33;;;;;;;18.88;11.93;;;;;;;3.37;75.37;93281.09;5100203;28;20031;-44
2021/11/26 01:10:59;;;;;;;13.60;10.30;;;;;;;3.34;74.24;93266.47;5099498;28;20103;-43
2021/11/26 01:13:26;;;;;;;17.25;11.30;;;;;;;3.32;74.40;93258.03;5100654;28;20032;-43
2021/11/26 01:15:52;;;;;;;19.45;12.25;;;;;;;3.40;75.54;93258.97;5097208;28;20023;-43
2021/11/26 01:18:18;;;;;;;16.90;11.82;;;;;;;3.40;75.68;93247.34;5099239;28;20030;-44
2021/11/26 01:20:44;;;;;;;15.63;10.52;;;;;;;3.29;75.34;93239.94;5099565;28;20040;-43
2021/11/26 01:23:10;;;;;;;16.45;11.68;;;;;;;3.41;74.06;93238.63;5099614;28;20024;-43
2021/11/26 01:25:36;;;;;;;16.15;11.82;;;;;;;3.42;74.90;93236.66;5099480;28;20012;-43
2021/11/26 01:28:03;;;;;;;13.60;9.75;;;;;;;3.52;74.30;93227.63;5096504;28;20082;-43
2021/11/26 01:30:32;;;;;;;15.20;10.00;;;;;;;3.38;74.18;93228.00;5096034;28;20107;-44
2021/11/26 01:33:00;;;;;;;17.50;11.50;;;;;;;3.35;74.67;93227.03;5099471;28;20084;-43
2021/11/26 01:35:27;;;;;;;15.48;10.40;;;;;;;3.42;74.38;93217.53;5096175;28;20504;-43
2021/11/26 01:37:53;;;;;;;15.70;11.05;;;;;;;3.37;73.97;93215.59;5096324;28;20058;-43
2021/11/26 01:40:19;;;;;;;15.57;11.50;;;;;;;3.36;74.40;93217.56;5100521;28;20463;-43
2021/11/26 01:42:46;;;;;;;15.98;11.57;;;;;;;3.34;74.30;93208.41;5098374;28;20458;-44
2021/11/26 01:45:12;;;;;;;17.70;10.63;;;;;;;3.24;74.43;93205.28;5099284;28;20038;-44
2021/11/26 01:47:38;;;;;;;16.67;11.93;;;;;;;3.20;74.96;93198.59;5097397;28;20069;-44
2021/11/26 01:50:05;;;;;;;16.75;10.85;;;;;;;3.15;75.06;93188.47;5098381;28;20062;-44
2021/11/26 01:52:31;;;;;;;13.45;9.85;;;;;;;3.14;74.97;93187.00;5099408;28;20568;-44
2021/11/26 01:54:56;;;;;;;14.57;10.75;;;;;;;2.96;74.89;93153.66;5096827;28;20031;-44
2021/11/26 01:57:22;;;;;;;14.10;9.55;;;;;;;3.19;74.58;93176.03;5097730;28;20023;-44
2021/11/26 01:59:49;;;;;;;15.20;10.52;;;;;;;3.02;75.45;93167.25;5097431;28;20027;-44
2021/11/26 02:02:15;;;;;;;20.38;13.35;;;;;;;3.10;75.73;93159.25;5099197;28;20020;-45
2021/11/26 02:04:41;;;;;;;15.93;11.65;;;;;;;3.17;75.26;93155.97;5095954;28;20107;-44
2021/11/26 02:07:06;;;;;;;17.52;12.45;;;;;;;3.12;75.69;93151.31;5100310;28;20468;-44
2021/11/26 02:09:32;;;;;;;19.98;12.85;;;;;;;3.12;75.47;93151.31;5101743;28;20089;-44
2021/11/26 02:11:57;;;;;;;18.98;11.80;;;;;;;3.14;75.44;93148.81;5100688;28;20511;-45
2021/11/26 02:14:23;;;;;;;17.60;12.80;;;;;;;3.15;74.53;93142.09;5101318;28;20027;-44
2021/11/26 02:16:50;;;;;;;17.92;11.77;;;;;;;3.04;75.71;93138.22;5100905;28;20568;-44
2021/11/26 02:19:16;;;;;;;18.52;12.13;;;;;;;3.03;75.57;93144.91;5102979;28;20416;-45
2021/11/26 02:21:42;;;;;;;16.00;10.73;;;;;;;3.13;75.13;93141.88;5100801;28;20048;-44
2021/11/26 02:24:08;;;;;;;20.38;11.80;;;;;;;2.97;75.67;93151.66;5102988;28;20024;-44
2021/11/26 02:26:36;;;;;;;16.52;11.93;;;;;;;2.99;75.69;93138.25;5101917;28;20024;-44
2021/11/26 02:29:02;;;;;;;14.68;10.50;;;;;;;2.99;75.42;93147.16;5103567;28;20019;-45
2021/11/26 02:31:28;;;;;;;14.40;9.90;;;;;;;3.03;74.87;93138.72;5103789;28;20028;-44
2021/11/26 02:33:53;;;;;;;16.30;11.32;;;;;;;2.88;75.96;93138.34;5100483;28;20023;-44
2021/11/26 02:36:19;;;;;;;17.00;11.32;;;;;;;2.92;75.79;93122.44;5100618;28;20945;-46
2021/11/26 02:38:44;;;;;;;19.40;12.00;;;;;;;3.03;75.58;93122.38;5100555;28;20420;-45
2021/11/26 02:41:10;;;;;;;15.65;11.15;;;;;;;2.87;75.51;93110.34;5102039;28;20824;-46
2021/11/26 02:43:36;;;;;;;15.85;10.98;;;;;;;3.09;75.55;93117.59;5100635;28;20034;-45
2021/11/26 02:46:01;;;;;;;20.40;13.27;;;;;;;3.13;75.36;93107.16;5101588;28;20020;-45
2021/11/26 02:48:27;;;;;;;19.23;11.82;;;;;;;3.26;74.89;93101.09;5102581;28;20031;-44
2021/11/26 02:50:52;;;;;;;14.32;10.93;;;;;;;3.38;74.17;93091.56;5100315;28;20744;-46
2021/11/26 02:53:18;;;;;;;15.80;10.23;;;;;;;3.38;73.54;93086.09;5103306;28;20076;-46
2021/11/26 02:55:44;;;;;;;13.60;9.90;;;;;;;3.30;74.31;93096.84;5101821;28;20527;-46
2021/11/26 02:58:10;;;;;;;14.05;9.80;;;;;;;3.21;74.27;93097.16;5100877;28;20041;-45
2021/11/26 03:00:38;;;;;;;14.25;10.27;;;;;;;3.29;74.65;93089.88;5103323;28;20432;-46
2021/11/26 03:03:04;;;;;;;14.20;10.05;;;;;;;3.30;74.37;93085.16;5101511;28;20029;-47
2021/11/26 03:05:30;;;;;;;16.20;10.98;;;;;;;3.08;74.50;93072.47;5101142;28;20015;-45
2021/11/26 03:07:56;;;;;;;22.92;10.63;;;;;;;3.13;74.96;93071.69;5104270;28;20027;-46
2021/11/26 03:10:22;;;;;;;17.83;10.35;;;;;;;3.09;75.14;93068.50;5098667;28;20051;-47
2021/11/26 03:12:51;;;;;;;15.43;10.45;;;;;;;3.13;74.71;93060.03;5102546;28;20034;-47
2021/11/26 03:15:18;;;;;;;17.45;10.70;;;;;;;3.16;75.31;93059.78;5100806;28;20024;-48
2021/11/26 03:17:44;;;;;;;15.32;10.80;;;;;;;3.20;74.20;93054.78;5097890;28;20028;-48
2021/11/26 03:20:10;;;;;;;19.83;12.60;;;;;;;3.18;74.75;93046.38;5100473;28;20104;-47
2021/11/26 03:22:36;;;;;;;22.30;14.25;;;;;;;3.27;74.55;93043.28;5100802;28;20034;-49
2021/11/26 03:25:02;;;;;;;15.70;11.05;;;;;;;3.34;74.73;93041.97;5100584;28;20020;-50
2021/11/26 03:27:29;;;;;;;20.05;12.70;;;;;;;3.37;74.60;93035.50;5099409;28;20031;-46
2021/11/26 03:29:54;;;;;;;15.85;11.05;;;;;;;3.21;73.93;93030.94;5100647;28;20032;-46
2021/11/26 03:32:20;;;;;;;17.75;11.13;;;;;;;3.20;74.08;93038.41;5100034;28;20027;-47
2021/11/26 03:34:46;;;;;;;18.25;10.70;;;;;;;3.18;74.09;93026.53;5101011;28;20024;-46
2021/11/26 03:37:11;;;;;;;17.83;11.40;;;;;;;3.10;74.68;93044.72;5099253;28;20030;-48
2021/11/26 03:39:37;;;;;;;17.52;11.40;;;;;;;3.00;74.93;93036.13;5100815;28;20028;-48
2021/11/26 03:42:03;;;;;;;18.15;11.35;;;;;;;2.97;74.78;93029.69;5100805;28;20068;-51
2021/11/26 03:44:28;;;;;;;18.50;11.50;;;;;;;2.70;75.67;93025.22;5098692;28;20035;-48
2021/11/26 03:46:54;;;;;;;25.58;12.48;;;;;;;2.66;76.03;93021.31;5099944;28;20024;-46
2021/11/26 03:49:20;;;;;;;18.17;12.38;;;;;;;2.76;75.70;93027.91;5100267;28;20032;-46
2021/11/26 03:51:45;;;;;;;18.52;11.77;;;;;;;2.71;76.66;93020.50;5101289;28;20400;-45
2021/11/26 03:54:11;;;;;;;22.92;13.70;;;;;;;2.74;76.38;93033.88;5096354;28;20050;-45
2021/11/26 03:56:36;;;;;;;20.30;13.05;;;;;;;2.93;75.69;93044.84;5097491;28;20020;-46
2021/11/26 03:59:05;;;;;;;19.73;12.38;;;;;;;2.92;75.80;93046.81;5099486;28;20068;-45
2021/11/26 04:01:31;;;;;;;22.40;13.70;;;;;;;2.97;75.95;93037.13;5099154;28;20028;-45
2021/11/26 04:03:56;;;;;;;21.52;12.57;;;;;;;3.04;75.53;93042.78;5100074;28;20417;-46
2021/11/26 04:06:22;;;;;;;17.50;11.95;;;;;;;3.11;75.28;93043.44;5099596;28;20028;-46
2021/11/26 04:08:47;;;;;;;16.92;11.75;;;;;;;3.20;74.74;93043.13;5098726;28;20024;-45
2021/11/26 04:11:13;;;;;;;19.63;12.90;;;;;;;3.11;76.06;93027.84;5099748;28;20120;-47
2021/11/26 04:13:38;;;;;;;21.10;11.98;;;;;;;3.26;75.16;93020.00;5098196;27;20394;-45
2021/11/26 04:16:06;;;;;;;21.75;12.10;;;;;;;3.13;75.35;93030.78;5100107;28;20107;-45
2021/11/26 04:18:33;;;;;;;18.75;11.57;;;;;;;3.15;75.36;93024.81;5100798;28;20490;-45
2021/11/26 04:21:02;;;;;;;19.35;12.50;;;;;;;3.13;75.11;93011.69;5098865;28;20040;-47
2021/11/26 04:23:27;;;;;;;19.33;12.38;;;;;;;3.27;75.38;92988.00;5098526;28;20030;-45
2021/11/26 04:25:53;;;;;;;18.05;11.70;;;;;;;3.40;74.52;92997.00;5098843;28;20032;-45
2021/11/26 04:28:18;;;;;;;18.42;11.82;;;;;;;3.41;73.63;92992.28;5098772;28;20023;-45
2021/11/26 04:30:44;;;;;;;18.33;12.75;;;;;;;3.57;73.44;92985.91;5100095;28;20476;-46
2021/11/26 04:33:09;;;;;;;16.35;10.57;;;;;;;3.59;72.49;92980.69;5098168;28;20420;-46
2021/11/26 04:35:35;;;;;;;17.90;12.18;;;;;;;3.60;72.82;92977.41;5100794;28;20107;-46
2021/11/26 04:38:00;;;;;;;22.80;13.32;;;;;;;3.56;72.87;92978.97;5100941;28;20024;-46
2021/11/26 04:40:26;;;;;;;22.20;15.30;;;;;;;3.64;73.15;92977.13;5098063;28;20580;-46
2021/11/26 04:42:52;;;;;;;17.95;11.45;;;;;;;3.33;73.53;92964.13;5098391;28;20020;-45
2021/11/26 04:45:17;;;;;;;18.27;12.10;;;;;;;3.31;73.20;92972.81;5099435;28;20039;-46
2021/11/26 04:47:45;;;;;;;22.70;15.10;;;;;;;3.17;73.45;92970.47;5099157;28;20429;-43
2021/11/26 04:50:12;;;;;;;27.13;15.57;;;;;;;3.16;73.73;92963.56;5098420;28;20405;-45
2021/11/26 04:52:37;;;;;;;42.47;25.67;;;;;;;3.32;73.80;92960.66;5100553;28;20016;-44
2021/11/26 04:55:04;;;;;;;25.48;15.38;;;;;;;3.46;73.52;92966.94;5098449;28;20572;-45
2021/11/26 04:57:30;;;;;;;21.42;14.30;;;;;;;3.47;73.06;92968.41;5098078;28;20459;-45
2021/11/26 04:59:56;;;;;;;20.35;13.77;;;;;;;3.50;73.10;92976.31;5097726;28;20023;-45
2021/11/26 05:02:22;;;;;;;24.00;15.63;;;;;;;3.38;73.30;92990.59;5098489;28;20031;-47
2021/11/26 05:04:48;;;;;;;32.28;16.67;;;;;;;3.48;72.95;92992.47;5095684;28;20102;-46
2021/11/26 05:07:13;;;;;;;27.35;16.70;;;;;;;3.52;72.43;92982.00;5099445;27;20106;-48
2021/11/26 05:09:39;;;;;;;30.73;18.13;;;;;;;3.38;73.53;92983.13;5097860;28;20024;-46
2021/11/26 05:12:06;;;;;;;22.38;16.20;;;;;;;3.34;73.25;92971.78;5095937;28;20497;-45
2021/11/26 05:14:32;;;;;;;24.02;15.18;;;;;;;3.11;73.46;92973.28;5097759;28;20024;-45
2021/11/26 05:16:58;;;;;;;25.52;16.15;;;;;;;3.19;74.38;92981.63;5098173;28;20032;-45
2021/11/26 05:19:24;;;;;;;25.23;16.27;;;;;;;3.23;74.95;92977.34;5099083;28;20118;-46
2021/11/26 05:21:49;;;;;;;24.17;16.48;;;;;;;3.24;74.77;92978.09;5097693;28;20126;-47
2021/11/26 05:24:15;;;;;;;26.55;16.48;;;;;;;3.26;74.73;92967.41;5098683;28;20031;-46
2021/11/26 05:26:41;;;;;;;28.42;17.52;;;;;;;3.21;74.59;92968.19;5096420;28;20039;-46
2021/11/26 05:29:08;;;;;;;20.90;12.80;;;;;;;3.01;75.46;92961.97;5097877;28;20131;-44
2021/11/26 05:31:38;;;;;;;18.95;11.48;;;;;;;3.11;75.44;92953.44;5096102;28;20557;-46
2021/11/26 05:34:05;;;;;;;15.73;10.55;;;;;;;2.93;74.60;92928.34;5099504;28;20036;-45
2021/11/26 05:36:31;;;;;;;20.35;11.23;;;;;;;2.94;74.78;92927.09;5098826;28;20478;-46
2021/11/26 05:38:56;;;;;;;22.75;12.85;;;;;;;2.87;75.52;92916.78;5096505;28;20055;-45
2021/11/26 05:41:22;;;;;;;18.95;12.07;;;;;;;2.75;76.14;92923.56;5098718;28;20120;-47
2021/11/26 05:43:48;;;;;;;21.85;13.07;;;;;;;2.75;76.45;92926.28;5099004;28;20035;-47
2021/11/26 05:46:14;;;;;;;21.67;13.07;;;;;;;2.86;75.96;92918.00;5096214;28;20026;-48
2021/11/26 05:48:40;;;;;;;22.35;13.05;;;;;;;2.90;76.31;92921.19;5097699;28;20023;-48
2021/11/26 05:51:05;;;;;;;19.52;13.10;;;;;;;2.82;76.83;92912.09;5098753;28;20077;-47
2021/11/26 05:53:31;;;;;;;20.83;13.43;;;;;;;2.74;77.31;92892.13;5098270;28;20027;-47
2021/11/26 05:55:59;;;;;;;20.20;12.52;;;;;;;2.87;76.84;92883.31;5098705;28;20031;-47
2021/11/26 05:58:25;;;;;;;19.97;12.30;;;;;;;2.86;77.44;92890.75;5095797;28;20059;-47
2021/11/26 06:00:51;;;;;;;23.20;14.32;;;;;;;2.78;77.92;92903.47;5098846;28;20039;-46
2021/11/26 06:03:16;;;;;;;22.40;14.23;;;;;;;2.80;78.08;92913.88;5096729;28;20082;-46
2021/11/26 06:05:42;;;;;;;27.30;13.93;;;;;;;2.73;78.64;92920.63;5098143;28;20065;-47
2021/11/26 06:08:08;;;;;;;24.65;13.43;;;;;;;2.74;78.32;92905.00;5097350;28;20039;-46
2021/11/26 06:10:33;;;;;;;18.60;13.32;;;;;;;2.83;77.74;92902.69;5096820;28;20069;-47
2021/11/26 06:12:59;;;;;;;22.67;14.52;;;;;;;2.93;77.75;92892.91;5096937;28;20489;-47
2021/11/26 06:15:25;;;;;;;22.08;13.52;;;;;;;3.00;77.37;92875.22;5095291;28;20042;-45
2021/11/26 06:17:50;;;;;;;19.35;12.48;;;;;;;2.94;77.24;92858.19;5093389;28;20033;-47
2021/11/26 06:20:17;;;;;;;26.48;15.40;;;;;;;3.12;77.18;92846.56;5094730;28;20055;-44
2021/11/26 06:22:43;;;;;;;36.20;20.13;;;;;;;3.17;77.13;92834.09;5094776;28;20032;-46
2021/11/26 06:25:11;;;;;;;21.63;13.50;;;;;;;3.09;76.51;92833.97;5095321;28;20028;-45
2021/11/26 06:27:37;;;;;;;20.73;12.40;;;;;;;3.19;76.59;92828.88;5093451;28;20035;-46
2021/11/26 06:30:04;;;;;;;22.38;13.68;;;;;;;3.27;76.26;92827.75;5094739;28;20101;-47
2021/11/26 06:32:30;;;;;;;21.00;14.25;;;;;;;3.36;76.62;92829.38;5093063;28;20035;-45
2021/11/26 06:34:55;;;;;;;19.55;13.52;;;;;;;3.44;75.76;92841.19;5092776;28;20032;-45
2021/11/26 06:37:21;;;;;;;23.95;14.60;;;;;;;3.49;75.45;92838.38;5096222;28;20036;-45
2021/11/26 06:39:46;;;;;;;19.80;13.38;;;;;;;3.48;75.14;92838.91;5093866;28;20024;-46
2021/11/26 06:42:12;;;;;;;19.98;12.40;;;;;;;3.50;74.52;92845.31;5095135;28;20547;-45
2021/11/26 06:44:38;;;;;;;20.73;12.30;;;;;;;3.50;74.28;92836.38;5095540;28;20039;-46
2021/11/26 06:47:04;;;;;;;21.08;13.93;;;;;;;3.54;74.86;92842.28;5094995;28;20030;-47
2021/11/26 06:49:30;;;;;;;25.13;13.88;;;;;;;3.70;74.25;92860.44;5094036;28;20023;-47
2021/11/26 06:51:55;;;;;;;22.23;13.77;;;;;;;3.78;74.56;92853.09;5098598;28;20516;-46
2021/11/26 06:54:21;;;;;;;18.95;10.95;;;;;;;3.79;73.44;92865.47;5098541;28;20031;-46
2021/11/26 06:56:46;;;;;;;247.68;26.67;;;;;;;3.73;73.42;92879.22;5099036;28;20121;-45
2021/11/26 06:59:12;;;;;;;19.48;11.43;;;;;;;3.75;73.59;92879.44;5099974;28;20814;-46
2021/11/26 07:01:38;;;;;;;21.05;12.30;;;;;;;3.65;73.77;92866.69;5099386;28;20093;-46
2021/11/26 07:04:06;;;;;;;31.85;14.02;;;;;;;3.61;74.14;92853.34;5100016;28;20133;-47
2021/11/26 07:06:33;;;;;;;15.57;10.60;;;;;;;3.64;73.36;92852.31;5096048;28;20027;-46
2021/11/26 07:08:59;;;;;;;16.27;11.82;;;;;;;3.63;72.97;92850.09;5098261;28;20404;-46
2021/11/26 07:11:24;;;;;;;15.65;11.10;;;;;;;3.67;72.54;92839.63;5099281;28;20032;-45
2021/11/26 07:13:50;;;;;;;19.77;11.32;;;;;;;3.69;73.15;92826.19;5100542;28;20424;-47
2021/11/26 07:16:15;;;;;;;13.63;10.07;;;;;;;3.91;72.31;92823.09;5102467;28;20474;-46
2021/11/26 07:18:41;;;;;;;14.40;10.57;;;;;;;4.01;72.05;92818.72;5098855;28;20047;-45
2021/11/26 07:21:06;;;;;;;13.77;9.32;;;;;;;3.93;71.54;92795.28;5098446;27;20112;-47
2021/11/26 07:23:32;;;;;;;20.80;12.48;;;;;;;3.81;71.86;92778.34;5098328;28;20166;-46
2021/11/26 07:25:57;;;;;;;15.00;9.18;;;;;;;3.87;71.64;92795.38;5098785;28;20072;-46
2021/11/26 07:28:24;;;;;;;14.27;9.98;;;;;;;3.60;71.89;92789.09;5098536;28;20031;-48
2021/11/26 07:30:49;;;;;;;13.77;9.50;;;;;;;3.59;71.74;92771.25;5097629;28;20040;-47
2021/11/26 07:33:15;;;;;;;13.45;8.90;;;;;;;3.52;71.67;92768.38;5100600;28;20036;-48
2021/11/26 07:35:40;;;;;;;11.43;8.35;;;;;;;3.28;72.98;92766.50;5101114;28;20023;-46
2021/11/26 07:38:06;;;;;;;13.65;9.70;;;;;;;3.30;72.98;92774.16;5101193;28;20119;-46
2021/11/26 07:40:32;;;;;;;15.32;9.25;;;;;;;3.17;73.51;92765.91;5101874;28;20031;-46
2021/11/26 07:42:58;;;;;;;15.35;10.27;;;;;;;3.24;73.79;92752.44;5099312;28;20052;-46
2021/11/26 07:45:24;;;;;;;15.75;9.60;;;;;;;3.42;72.49;92754.38;5101695;28;20493;-47
2021/11/26 07:47:50;;;;;;;12.32;9.05;;;;;;;3.48;73.14;92730.50;5099108;28;20036;-45
2021/11/26 07:50:16;;;;;;;12.82;9.27;;;;;;;3.37;72.33;92724.47;5098611;27;20062;-46
2021/11/26 07:52:42;;;;;;;14.80;9.27;;;;;;;3.31;73.56;92730.00;5099798;28;20106;-47
2021/11/26 07:55:09;;;;;;;15.23;9.10;;;;;;;3.39;72.92;92736.34;5099191;28;20039;-46
2021/11/26 07:57:36;;;;;;;19.38;9.30;;;;;;;3.49;73.05;92737.41;5102615;28;20072;-46
2021/11/26 08:00:05;;;;;;;15.90;10.48;;;;;;;3.60;73.04;92731.03;5098640;28;20038;-46
2021/11/26 08:02:30;;;;;;;22.13;9.77;;;;;;;3.50;72.73;92700.69;5100764;28;20081;-48
2021/11/26 08:04:56;;;;;;;13.40;8.05;;;;;;;3.63;71.94;92687.06;5101759;28;20493;-45
2021/11/26 08:07:22;;;;;;;17.60;12.57;;;;;;;3.55;72.31;92685.47;5098234;28;20034;-46
2021/11/26 08:09:47;;;;;;;20.75;14.88;;;;;;;3.53;72.59;92704.38;5098096;28;20485;-46
2021/11/26 08:12:13;;;;;;;14.50;9.73;;;;;;;3.41;72.41;92686.69;5099626;28;20027;-46
2021/11/26 08:14:38;;;;;;;11.90;8.63;;;;;;;3.36;72.59;92714.78;5101213;28;20102;-47
2021/11/26 08:17:04;;;;;;;14.65;8.70;;;;;;;3.37;72.68;92708.84;5101220;28;20432;-47
2021/11/26 08:19:29;;;;;;;18.27;9.25;;;;;;;3.30;73.28;92695.78;5097652;28;20103;-46
2021/11/26 08:21:55;;;;;;;15.55;11.20;;;;;;;3.43;72.19;92686.91;5100512;28;20068;-48
2021/11/26 08:24:22;;;;;;;18.38;11.70;;;;;;;3.29;72.29;92672.47;5100261;28;20031;-46
2021/11/26 08:26:48;;;;;;;19.30;11.10;;;;;;;3.41;72.22;92676.53;5100541;28;20031;-46
2021/11/26 08:29:14;;;;;;;16.35;9.32;;;;;;;3.48;72.79;92683.34;5101935;28;20036;-45
2021/11/26 08:31:40;;;;;;;13.35;8.48;;;;;;;3.57;73.03;92669.31;5098316;28;20034;-47
2021/11/26 08:34:06;;;;;;;11.00;8.18;;;;;;;3.47;71.72;92641.69;5101306;28;20024;-45
2021/11/26 08:36:32;;;;;;;11.05;8.13;;;;;;;3.70;71.09;92664.59;5096832;28;20031;-45
2021/11/26 08:38:58;;;;;;;14.07;8.90;;;;;;;3.56;71.78;92649.47;5100498;28;20027;-45
2021/11/26 08:41:25;;;;;;;13.20;8.73;;;;;;;3.69;71.84;92644.03;5100341;28;20554;-45
2021/11/26 08:43:50;;;;;;;15.35;9.30;;;;;;;3.64;71.54;92636.66;5098651;28;20478;-47
2021/11/26 08:46:16;;;;;;;13.63;8.00;;;;;;;3.71;71.49;92636.03;5097672;28;20033;-45
2021/11/26 08:48:42;;;;;;;10.30;7.43;;;;;;;3.81;71.21;92623.44;5099748;28;20035;-46
2021/11/26 08:51:09;;;;;;;10.93;8.10;;;;;;;3.94;70.32;92627.44;5097330;28;20058;-46
2021/11/26 08:53:38;;;;;;;13.25;9.02;;;;;;;3.81;70.42;92614.53;5097917;28;20034;-46
2021/11/26 08:56:03;;;;;;;25.48;12.25;;;;;;;3.81;71.34;92614.53;5096048;28;20027;-45
2021/11/26 08:58:30;;;;;;;12.00;8.70;;;;;;;3.88;70.32;92616.63;5099524;28;20039;-48
2021/11/26 09:00:55;;;;;;;15.20;8.65;;;;;;;3.97;71.01;92605.28;5098573;28;20051;-47
2021/11/26 09:03:21;;;;;;;13.10;9.73;;;;;;;4.00;70.53;92587.84;5100565;28;20473;-45
2021/11/26 09:05:47;;;;;;;14.18;10.05;;;;;;;4.00;70.92;92590.56;5097521;28;20058;-47
2021/11/26 09:08:15;;;;;;;12.68;7.90;;;;;;;3.91;70.12;92582.06;5099004;28;20666;-48
2021/11/26 09:10:44;;;;;;;11.48;7.70;;;;;;;3.74;70.94;92585.13;5097818;28;20103;-46
2021/11/26 09:13:10;;;;;;;19.38;11.40;;;;;;;3.78;70.47;92588.28;5098323;28;20039;-45
2021/11/26 09:15:36;;;;;;;11.35;7.68;;;;;;;3.81;70.46;92579.03;5098365;28;20032;-47
2021/11/26 09:18:02;;;;;;;11.43;6.43;;;;;;;3.70;70.55;92584.72;5100811;28;20020;-48
2021/11/26 09:20:28;;;;;;;9.70;7.15;;;;;;;3.58;71.16;92567.81;5097053;28;20044;-47
2021/11/26 09:22:54;;;;;;;11.55;7.95;;;;;;;3.69;71.41;92581.25;5098814;28;20024;-46
2021/11/26 09:25:21;;;;;;;10.80;7.22;;;;;;;3.80;70.39;92569.38;5100833;28;20489;-46
2021/11/26 09:27:46;;;;;;;10.90;7.32;;;;;;;3.70;70.53;92521.94;5098587;28;20059;-45
2021/11/26 09:30:18;;;;;;;11.23;7.63;;;;;;;3.81;70.07;92499.88;5098407;28;20485;-45
2021/11/26 09:32:43;;;;;;;10.82;8.10;;;;;;;3.77;70.06;92472.88;5099869;28;20106;-47
2021/11/26 09:35:09;;;;;;;11.10;7.20;;;;;;;3.83;69.74;92468.03;5101730;28;20110;-47
2021/11/26 09:37:35;;;;;;;11.88;8.57;;;;;;;3.74;70.11;92457.56;5098816;28;20036;-47
2021/11/26 09:40:01;;;;;;;11.35;7.13;;;;;;;3.80;70.24;92435.59;5099256;28;20054;-46
2021/11/26 09:42:27;;;;;;;10.90;7.93;;;;;;;3.92;70.62;92438.81;5100379;28;20385;-46
2021/11/26 09:44:56;;;;;;;12.88;7.75;;;;;;;3.96;70.74;92404.47;5095978;28;20030;-47
2021/11/26 09:47:21;;;;;;;12.98;8.30;;;;;;;4.21;69.68;92391.22;5096840;28;20513;-45
2021/11/26 09:49:47;;;;;;;12.02;8.20;;;;;;;4.30;68.19;92377.81;5096771;28;20038;-45
2021/11/26 09:52:13;;;;;;;11.73;8.10;;;;;;;4.30;68.89;92363.41;5099667;28;20027;-46
2021/11/26 09:54:41;;;;;;;13.05;8.05;;;;;;;4.34;68.92;92364.56;5095204;28;20524;-45
2021/11/26 09:57:08;;;;;;;9.93;7.40;;;;;;;4.33;69.52;92357.59;5099161;28;20133;-46
2021/11/26 09:59:34;;;;;;;11.15;7.85;;;;;;;4.57;69.99;92356.50;5097523;28;20024;-46
2021/11/26 10:02:21;;;;;;;12.50;8.98;;;;;;;4.63;68.72;92368.06;5096426;28;20485;-46
2021/11/26 10:05:02;;;;;;;10.00;6.80;;;;;;;4.48;68.84;92352.25;5097007;28;20066;-46
2021/11/26 10:07:28;;;;;;;9.80;6.35;;;;;;;4.59;68.33;92368.38;5098115;28;20059;-47
2021/11/26 10:09:54;;;;;;;10.10;6.32;;;;;;;4.69;67.46;92362.44;5101206;28;20063;-45
2021/11/26 10:12:20;;;;;;;10.70;7.65;;;;;;;4.65;68.25;92357.31;5099691;28;20039;-47
2021/11/26 10:14:48;;;;;;;9.43;7.03;;;;;;;4.87;68.48;92373.13;5098617;28;20412;-46
2021/11/26 10:17:22;;;;;;;10.77;6.70;;;;;;;4.93;67.79;92367.50;5100639;28;20043;-45
2021/11/26 10:19:59;;;;;;;9.88;6.68;;;;;;;5.00;67.79;92370.25;5097147;28;20062;-46
2021/11/26 10:22:36;;;;;;;7.97;6.32;;;;;;;5.21;67.55;92362.75;5097703;28;20040;-44
2021/11/26 10:25:11;;;;;;;13.82;6.30;;;;;;;5.73;66.09;92347.78;5097663;28;20504;-46
2021/11/26 10:27:46;;;;;;;10.55;5.88;;;;;;;6.02;65.56;92323.75;5100577;28;20031;-47
2021/11/26 10:30:34;;;;;;;6.70;4.93;;;;;;;6.19;63.58;92304.03;5102061;28;20056;-46
2021/11/26 10:33:06;;;;;;;6.68;5.20;;;;;;;6.04;63.63;92291.78;5103263;28;20040;-46
2021/11/26 10:35:39;;;;;;;7.18;5.20;;;;;;;5.95;64.00;92308.78;5099229;28;20119;-46
2021/11/26 10:38:14;;;;;;;7.40;5.45;;;;;;;6.03;63.51;92292.31;5100512;28;20032;-45
2021/11/26 10:40:43;;;;;;;7.22;5.35;;;;;;;6.21;63.09;92283.03;5102521;28;20085;-46
2021/11/26 10:43:17;;;;;;;7.57;5.72;;;;;;;6.31;63.02;92285.94;5099246;28;20408;-46
2021/11/26 10:59:09;;;;;;;5.85;5.25;;;;;;;8.49;55.07;92322.72;5100430;28;20031;-45
2021/11/26 11:01:43;;;;;;;6.60;4.65;;;;;;;8.15;56.50;92326.06;5101369;28;20504;-46
2021/11/26 11:04:21;;;;;;;6.45;4.70;;;;;;;8.03;56.35;92338.81;5101285;28;20034;-47
2021/11/26 11:07:00;;;;;;;11.55;4.82;;;;;;;7.45;57.84;92329.00;5099954;28;20030;-46
2021/11/26 11:09:26;;;;;;;6.25;4.55;;;;;;;7.12;58.59;92310.28;5100807;28;20088;-45
2021/11/26 11:11:53;;;;;;;7.57;5.30;;;;;;;7.16;58.47;92288.69;5104162;28;20398;-45
2021/11/26 11:14:21;;;;;;;6.35;5.72;;;;;;;7.00;59.66;92284.50;5101206;28;20140;-45
2021/11/26 11:16:52;;;;;;;9.57;5.63;;;;;;;6.71;60.27;92270.34;5101329;28;20028;-45
2021/11/26 11:19:18;;;;;;;10.18;7.03;;;;;;;6.73;61.26;92271.25;5099181;28;20023;-46
2021/11/26 11:21:45;;;;;;;9.73;6.05;;;;;;;6.56;61.70;92270.38;5101895;28;20048;-47
2021/11/26 11:24:11;;;;;;;8.88;5.30;;;;;;;6.26;61.85;92293.06;5102161;28;20108;-47
2021/11/26 11:26:44;;;;;;;9.38;5.95;;;;;;;6.07;62.38;92320.81;5100302;28;20038;-45
2021/11/26 11:29:11;;;;;;;7.03;4.95;;;;;;;5.96;62.77;92304.00;5099348;28;20031;-46
2021/11/26 11:31:41;;;;;;;6.95;5.43;;;;;;;5.90;63.05;92309.66;5101809;28;20085;-46
2021/11/26 11:34:07;;;;;;;7.88;5.93;;;;;;;5.81;64.86;92293.75;5100214;28;20034;-47
2021/11/26 11:36:37;;;;;;;6.18;4.50;;;;;;;5.86;63.63;92292.88;5100738;28;20032;-47
2021/11/26 11:39:05;;;;;;;9.68;7.10;;;;;;;5.88;63.52;92297.78;5099251;28;20024;-45